createdAt,value
2017-09-22T00:00:46.247Z,99324.64
2017-09-22T00:03:13.739Z,99323.25
2017-09-22T00:05:41.490Z,99322.58
2017-09-22T00:08:09.033Z,99322.28
2017-09-22T00:10:36.494Z,99318.13
2017-09-22T00:13:04.020Z,99324.37
2017-09-22T00:15:31.484Z,99319.09
2017-09-22T00:17:58.965Z,99328.71
2017-09-22T00:20:26.428Z,99321.88
2017-09-22T00:22:53.880Z,99325.36
2017-09-22T00:25:21.359Z,99323.42
2017-09-22T00:27:48.832Z,99323.36
2017-09-22T00:30:16.310Z,99315.72
2017-09-22T00:32:43.766Z,99320.64
2017-09-22T00:35:11.222Z,99318.42
2017-09-22T00:37:38.710Z,99314.33
2017-09-22T00:40:06.172Z,99320.42
2017-09-22T00:42:33.657Z,99317.16
2017-09-22T00:45:01.125Z,99321.61
2017-09-22T00:47:28.583Z,99316.55
2017-09-22T00:49:56.066Z,99315.58
2017-09-22T00:52:23.541Z,99321.63
2017-09-22T00:54:51.016Z,99312.92
2017-09-22T00:57:18.484Z,99324.75
2017-09-22T00:59:45.963Z,99313.15
2017-09-22T01:02:13.437Z,99314.95
2017-09-22T01:04:40.898Z,99306.97
2017-09-22T01:07:08.363Z,99308.70
2017-09-22T01:09:35.826Z,99305.23
2017-09-22T01:12:03.662Z,99299.81
2017-09-22T01:14:31.113Z,99301.63
2017-09-22T01:16:58.570Z,99304.05
2017-09-22T01:19:26.077Z,99296.18
2017-09-22T01:21:53.540Z,99299.46
2017-09-22T01:24:21.355Z,99294.30
2017-09-22T01:26:48.949Z,99290.44
2017-09-22T01:29:17.247Z,99285.16
2017-09-22T01:31:45.059Z,99283.42
2017-09-22T01:34:12.523Z,99281.04
2017-09-22T01:36:39.997Z,99286.68
2017-09-22T01:39:07.454Z,99284.32
2017-09-22T01:41:34.941Z,99289.83
2017-09-22T01:44:02.402Z,99289.05
2017-09-22T01:46:29.880Z,99287.38
2017-09-22T01:48:57.345Z,99285.17
2017-09-22T01:51:25.121Z,99283.43
2017-09-22T01:53:52.579Z,99285.58
2017-09-22T01:56:20.036Z,99285.44
2017-09-22T01:58:47.510Z,99290.10
2017-09-22T02:01:14.977Z,99290.16
2017-09-22T02:03:42.456Z,99280.59
2017-09-22T02:06:09.922Z,99287.20
2017-09-22T02:08:37.722Z,99286.08
2017-09-22T02:11:05.186Z,99286.82
2017-09-22T02:13:32.640Z,99291.98
2017-09-22T02:16:00.116Z,99278.20
2017-09-22T02:18:27.580Z,99279.40
2017-09-22T02:20:55.313Z,99274.47
2017-09-22T02:23:22.763Z,99279.11
2017-09-22T02:25:50.228Z,99269.33
2017-09-22T02:28:17.717Z,99271.81
2017-09-22T02:30:45.185Z,99272.30
2017-09-22T02:33:12.675Z,99280.70
2017-09-22T02:35:40.151Z,99282.44
2017-09-22T02:38:07.626Z,99276.89
2017-09-22T02:40:35.092Z,99280.08
2017-09-22T02:43:02.956Z,99284.13
2017-09-22T02:45:30.427Z,99289.34
2017-09-22T02:47:57.891Z,99290.22
2017-09-22T02:50:25.362Z,99285.32
2017-09-22T02:52:52.826Z,99291.27
2017-09-22T02:55:20.295Z,99289.12
2017-09-22T02:57:47.761Z,99287.06
2017-09-22T03:00:15.563Z,99287.54
2017-09-22T03:02:43.031Z,99284.33
2017-09-22T03:05:10.498Z,99282.59
2017-09-22T03:07:37.980Z,99282.88
2017-09-22T03:10:05.468Z,99285.05
2017-09-22T03:12:32.935Z,99277.80
2017-09-22T03:15:00.391Z,99285.24
2017-09-22T03:17:28.161Z,99287.52
2017-09-22T03:19:55.622Z,99287.59
2017-09-22T03:22:23.077Z,99285.94
2017-09-22T03:24:50.561Z,99280.98
2017-09-22T03:27:18.025Z,99280.92
2017-09-22T03:29:45.500Z,99282.13
2017-09-22T03:32:12.966Z,99278.84
2017-09-22T03:34:40.718Z,99286.06
2017-09-22T03:37:08.184Z,99277.25
2017-09-22T03:39:35.655Z,99277.30
2017-09-22T03:42:03.134Z,99273.77
2017-09-22T03:44:30.619Z,99269.33
2017-09-22T03:46:58.116Z,99272.54
2017-09-22T03:49:25.580Z,99268.97
2017-09-22T03:51:53.054Z,99268.84
2017-09-22T03:54:20.512Z,99271.06
2017-09-22T03:56:48.321Z,99275.44
2017-09-22T03:59:15.784Z,99271.13
2017-09-22T04:01:43.244Z,99270.38
2017-09-22T04:04:10.743Z,99262.65
2017-09-22T04:06:38.217Z,99273.64
2017-09-22T04:09:05.686Z,99270.23
2017-09-22T04:11:33.153Z,99273.35
2017-09-22T04:14:00.643Z,99269.13
2017-09-22T04:16:28.115Z,99273.98
2017-09-22T04:18:55.588Z,99272.41
2017-09-22T04:21:23.056Z,99263.63
2017-09-22T04:23:50.584Z,99265.38
2017-09-22T04:26:18.058Z,99277.05
2017-09-22T04:28:45.523Z,99275.52
2017-09-22T04:31:12.983Z,99273.22
2017-09-22T04:33:40.493Z,99279.52
2017-09-22T04:36:07.957Z,99272.24
2017-09-22T04:38:35.719Z,99277.67
2017-09-22T04:41:03.191Z,99279.89
2017-09-22T04:43:30.662Z,99280.70
2017-09-22T04:45:58.134Z,99277.45
2017-09-22T04:48:25.596Z,99285.64
2017-09-22T04:50:53.071Z,99284.44
2017-09-22T04:53:20.572Z,99285.44
2017-09-22T04:55:48.060Z,99288.16
2017-09-22T04:58:15.544Z,99288.85
2017-09-22T05:00:43.017Z,99292.54
2017-09-22T05:03:10.481Z,99293.20
2017-09-22T05:05:37.982Z,99295.63
2017-09-22T05:08:05.804Z,99302.80
2017-09-22T05:10:33.271Z,99303.81
2017-09-22T05:13:00.734Z,99302.98
2017-09-22T05:15:28.210Z,99309.93
2017-09-22T05:17:55.666Z,99306.66
2017-09-22T05:20:23.155Z,99310.71
2017-09-22T05:22:50.636Z,99304.59
2017-09-22T05:25:18.111Z,99302.70
2017-09-22T05:27:45.568Z,99302.17
2017-09-22T05:30:13.408Z,99302.59
2017-09-22T05:32:40.879Z,99305.64
2017-09-22T05:35:08.373Z,99303.84
2017-09-22T05:37:35.856Z,99308.55
2017-09-22T05:40:03.317Z,99310.28
2017-09-22T05:42:30.827Z,99317.36
2017-09-22T05:44:58.282Z,99311.19
2017-09-22T05:47:26.123Z,99310.23
2017-09-22T05:49:53.595Z,99307.16
2017-09-22T05:52:21.127Z,99308.01
2017-09-22T05:54:48.616Z,99296.08
2017-09-22T05:57:16.075Z,99303.69
2017-09-22T05:59:43.964Z,99307.11
2017-09-22T06:02:11.431Z,99303.62
2017-09-22T06:04:38.896Z,99306.69
2017-09-22T06:07:06.382Z,99302.67
2017-09-22T06:09:33.859Z,99311.00
2017-09-22T06:12:01.345Z,99308.48
2017-09-22T06:14:28.791Z,99308.84
2017-09-22T06:16:56.287Z,99319.19
2017-09-22T06:19:23.735Z,99323.92
2017-09-22T06:21:51.228Z,99317.66
2017-09-22T06:24:18.724Z,99312.62
2017-09-22T06:26:46.228Z,99317.55
2017-09-22T06:29:13.776Z,99322.66
2017-09-22T06:31:41.248Z,99321.54
2017-09-22T06:34:08.732Z,99325.16
2017-09-22T06:36:36.214Z,99325.31
2017-09-22T06:39:03.691Z,99332.17
2017-09-22T06:41:31.552Z,99329.61
2017-09-22T06:43:59.029Z,99336.56
2017-09-22T06:46:26.507Z,99336.14
2017-09-22T06:48:53.988Z,99339.41
2017-09-22T06:51:21.448Z,99338.16
2017-09-22T06:53:48.950Z,99331.65
2017-09-22T06:56:16.422Z,99339.50
2017-09-22T06:58:44.279Z,99339.16
2017-09-22T07:01:11.746Z,99342.73
2017-09-22T07:03:39.228Z,99343.81
2017-09-22T07:06:06.728Z,99349.14
2017-09-22T07:08:34.187Z,99359.66
2017-09-22T07:11:01.660Z,99350.95
2017-09-22T07:13:29.143Z,99355.28
2017-09-22T07:15:56.668Z,99359.91
2017-09-22T07:18:24.177Z,99361.58
2017-09-22T07:20:51.929Z,99356.17
2017-09-22T07:23:19.386Z,99355.12
2017-09-22T07:25:46.890Z,99354.23
2017-09-22T07:28:14.372Z,99351.14
2017-09-22T07:30:41.856Z,99354.76
2017-09-22T07:33:09.362Z,99354.89
2017-09-22T07:35:37.079Z,99354.45
2017-09-22T07:38:08.845Z,99358.36
2017-09-22T07:40:36.350Z,99353.83
2017-09-22T07:43:04.174Z,99353.25
2017-09-22T07:45:31.671Z,99363.05
2017-09-22T07:47:59.143Z,99366.45
2017-09-22T07:50:26.620Z,99368.25
2017-09-22T07:52:54.406Z,99363.23
2017-09-22T07:55:22.208Z,99375.03
2017-09-22T07:57:49.688Z,99380.03
2017-09-22T08:00:17.163Z,99380.45
2017-09-22T08:02:44.639Z,99375.41
2017-09-22T08:05:12.108Z,99381.38
2017-09-22T08:07:39.582Z,99385.56
2017-09-22T08:10:07.081Z,99388.20
2017-09-22T08:12:34.953Z,99393.98
2017-09-22T08:15:02.424Z,99398.75
2017-09-22T08:17:29.898Z,99395.38
2017-09-22T08:19:57.430Z,99393.11
2017-09-22T08:22:24.947Z,99395.28
2017-09-22T08:24:52.433Z,99393.08
2017-09-22T08:27:19.907Z,99387.65
2017-09-22T08:29:47.409Z,99387.77
2017-09-22T08:32:14.898Z,99388.96
2017-09-22T08:34:42.737Z,99385.13
2017-09-22T08:37:10.227Z,99382.58
2017-09-22T08:39:37.714Z,99381.77
2017-09-22T08:42:05.244Z,99377.64
2017-09-22T08:44:32.716Z,99369.81
2017-09-22T08:47:00.213Z,99373.59
2017-09-22T08:49:27.726Z,99365.94
2017-09-22T08:51:55.558Z,99375.92
2017-09-22T08:54:23.069Z,99379.31
2017-09-22T08:56:50.537Z,99377.08
2017-09-22T08:59:18.014Z,99384.98
2017-09-22T09:01:46.379Z,99386.69
2017-09-22T09:04:13.866Z,99386.07
2017-09-22T09:06:41.364Z,99381.33
2017-09-22T09:09:09.117Z,99383.11
2017-09-22T09:11:36.614Z,99389.47
2017-09-22T09:14:04.087Z,99387.34
2017-09-22T09:16:31.586Z,99372.73
2017-09-22T09:18:59.104Z,99374.02
2017-09-22T09:21:26.595Z,99366.28
2017-09-22T09:23:54.085Z,99367.33
2017-09-22T09:26:21.992Z,99367.84
2017-09-22T09:28:49.498Z,99374.98
2017-09-22T09:31:17.007Z,99380.08
2017-09-22T09:33:44.520Z,99374.81
2017-09-22T09:36:12.022Z,99367.61
2017-09-22T09:38:39.892Z,99367.83
2017-09-22T09:41:07.398Z,99359.55
2017-09-22T09:43:34.867Z,99357.66
2017-09-22T09:46:02.355Z,99360.38
2017-09-22T09:48:29.827Z,99359.16
2017-09-22T09:50:58.044Z,99350.17
2017-09-22T09:53:25.514Z,99350.88
2017-09-22T09:55:53.335Z,99349.54
2017-09-22T09:58:20.804Z,99351.13
2017-09-22T10:00:48.294Z,99355.77
2017-09-22T10:03:15.838Z,99358.52
2017-09-22T10:05:43.325Z,99357.34
2017-09-22T10:08:10.819Z,99354.39
2017-09-22T10:10:38.319Z,99353.20
2017-09-22T10:13:05.906Z,99354.99
2017-09-22T10:15:33.397Z,99351.64
2017-09-22T10:18:01.245Z,99351.73
2017-09-22T10:20:28.758Z,99352.81
2017-09-22T10:22:56.580Z,99349.78
2017-09-22T10:25:24.086Z,99347.73
2017-09-22T10:27:51.574Z,99346.25
2017-09-22T10:30:19.102Z,99336.97
2017-09-22T10:32:46.588Z,99344.55
2017-09-22T10:35:14.065Z,99342.70
2017-09-22T10:37:41.657Z,99343.66
2017-09-22T10:40:09.419Z,99345.85
2017-09-22T10:42:36.896Z,99349.80
2017-09-22T10:45:04.422Z,99340.53
2017-09-22T10:47:31.893Z,99337.30
2017-09-22T10:49:59.345Z,99343.41
2017-09-22T10:52:27.196Z,99346.73
2017-09-22T10:54:54.673Z,99338.20
2017-09-22T10:57:22.152Z,99336.95
2017-09-22T10:59:49.655Z,99341.37
2017-09-22T11:02:17.155Z,99337.72
2017-09-22T11:04:44.622Z,99342.16
2017-09-22T11:07:12.078Z,99342.86
2017-09-22T11:09:39.925Z,99342.02
2017-09-22T11:12:07.408Z,99345.42
2017-09-22T11:14:34.871Z,99349.44
2017-09-22T11:17:02.382Z,99343.31
2017-09-22T11:19:29.872Z,99356.30
2017-09-22T11:21:57.352Z,99346.05
2017-09-22T11:24:24.842Z,99345.16
2017-09-22T11:26:52.330Z,99350.25
2017-09-22T11:29:20.099Z,99351.63
2017-09-22T11:31:47.061Z,99341.16
2017-09-22T11:34:13.957Z,99338.55
2017-09-22T11:36:41.461Z,99339.15
2017-09-22T11:39:08.950Z,99332.83
2017-09-22T11:41:36.745Z,99333.66
2017-09-22T11:44:04.204Z,99333.08
2017-09-22T11:46:31.690Z,99328.98
2017-09-22T11:48:59.184Z,99335.00
2017-09-22T11:51:26.695Z,99340.23
2017-09-22T11:53:54.172Z,99339.26
2017-09-22T11:56:21.642Z,99346.44
2017-09-22T11:58:49.404Z,99344.91
2017-09-22T12:01:16.862Z,99347.72
2017-09-22T12:03:44.413Z,99351.05
2017-09-22T12:06:11.927Z,99344.94
2017-09-22T12:08:39.428Z,99339.77
2017-09-22T12:11:07.259Z,99345.58
2017-09-22T12:13:34.720Z,99344.98
2017-09-22T12:16:02.230Z,99339.72
2017-09-22T12:18:29.718Z,99343.00
2017-09-22T12:20:57.206Z,99350.78
2017-09-22T12:23:24.684Z,99345.17
2017-09-22T12:25:52.204Z,99344.32
2017-09-22T12:28:20.083Z,99344.61
2017-09-22T12:30:47.574Z,99347.58
2017-09-22T12:33:15.089Z,99345.49
2017-09-22T12:35:42.645Z,99343.56
2017-09-22T12:38:10.147Z,99344.30
2017-09-22T12:40:37.638Z,99346.86
2017-09-22T12:43:05.100Z,99347.47
2017-09-22T12:45:32.570Z,99343.50
2017-09-22T12:48:00.038Z,99348.45
2017-09-22T12:50:27.535Z,99343.66
2017-09-22T12:52:55.366Z,99341.19
2017-09-22T12:55:23.104Z,99345.22
2017-09-22T12:57:50.582Z,99342.47
2017-09-22T13:00:18.053Z,99343.31
2017-09-22T13:02:45.536Z,99339.55
2017-09-22T13:05:13.010Z,99339.40
2017-09-22T13:07:40.491Z,99336.77
2017-09-22T13:10:07.970Z,99341.39
2017-09-22T13:12:35.771Z,99341.48
2017-09-22T13:15:03.262Z,99336.68
2017-09-22T13:17:30.736Z,99341.33
2017-09-22T13:19:58.250Z,99344.77
2017-09-22T13:22:25.763Z,99342.75
2017-09-22T13:24:53.251Z,99342.88
2017-09-22T13:27:20.751Z,99347.57
2017-09-22T13:29:48.554Z,99344.00
2017-09-22T13:32:16.026Z,99341.49
2017-09-22T13:34:43.498Z,99345.31
2017-09-22T13:37:11.008Z,99334.24
2017-09-22T13:39:38.493Z,99337.02
2017-09-22T13:42:05.981Z,99346.27
2017-09-22T13:44:33.454Z,99337.28
2017-09-22T13:47:01.263Z,99334.75
2017-09-22T13:49:28.730Z,99338.95
2017-09-22T13:51:56.194Z,99332.77
2017-09-22T13:54:24.045Z,99331.17
2017-09-22T13:56:51.504Z,99339.25
2017-09-22T13:59:18.961Z,99334.83
2017-09-22T14:01:46.478Z,99338.30
2017-09-22T14:04:14.022Z,99338.84
2017-09-22T14:06:41.830Z,99342.06
2017-09-22T14:09:09.354Z,99336.41
2017-09-22T14:11:36.812Z,99340.54
2017-09-22T14:14:04.302Z,99341.61
2017-09-22T14:16:31.768Z,99341.91
2017-09-22T14:18:59.269Z,99345.97
2017-09-22T14:21:26.743Z,99340.48
2017-09-22T14:23:54.567Z,99340.44
2017-09-22T14:26:22.055Z,99344.17
2017-09-22T14:28:49.545Z,99346.05
2017-09-22T14:31:17.043Z,99343.41
2017-09-22T14:33:44.548Z,99343.27
2017-09-22T14:36:12.025Z,99344.55
2017-09-22T14:38:39.520Z,99343.05
2017-09-22T14:41:07.348Z,99345.77
2017-09-22T14:43:34.867Z,99350.74
2017-09-22T14:46:02.356Z,99350.45
2017-09-22T14:48:29.852Z,99348.45
2017-09-22T14:50:57.330Z,99349.45
2017-09-22T14:53:24.845Z,99349.91
2017-09-22T14:55:52.329Z,99350.70
2017-09-22T14:58:20.163Z,99342.98
2017-09-22T15:00:47.663Z,99347.23
2017-09-22T15:03:15.135Z,99349.95
2017-09-22T15:05:42.636Z,99355.63
2017-09-22T15:08:10.100Z,99352.79
2017-09-22T15:10:37.580Z,99359.38
2017-09-22T15:13:05.031Z,99364.27
2017-09-22T15:15:32.518Z,99363.47
2017-09-22T15:17:59.984Z,99362.19
2017-09-22T15:20:27.800Z,99369.39
2017-09-22T15:22:55.418Z,99367.72
2017-09-22T15:25:22.905Z,99370.54
2017-09-22T15:27:50.396Z,99372.88
2017-09-22T15:30:17.878Z,99370.58
2017-09-22T15:32:45.352Z,99374.28
2017-09-22T15:35:12.819Z,99376.77
2017-09-22T15:37:40.305Z,99367.22
2017-09-22T15:40:07.779Z,99363.63
2017-09-22T15:42:35.635Z,99368.62
2017-09-22T15:45:03.109Z,99373.41
2017-09-22T15:47:30.597Z,99369.99
2017-09-22T15:49:58.071Z,99377.88
2017-09-22T15:52:25.535Z,99369.78
2017-09-22T15:54:53.025Z,99370.08
2017-09-22T15:57:20.488Z,99365.72
2017-09-22T15:59:48.340Z,99369.39
2017-09-22T16:02:15.814Z,99367.41
2017-09-22T16:04:43.376Z,99368.81
2017-09-22T16:07:10.855Z,99369.72
2017-09-22T16:09:38.320Z,99370.16
2017-09-22T16:12:05.825Z,99376.17
2017-09-22T16:14:33.296Z,99374.03
2017-09-22T16:17:00.778Z,99372.15
2017-09-22T16:19:28.255Z,99373.23
2017-09-22T16:21:56.000Z,99376.89
2017-09-22T16:24:23.464Z,99376.13
2017-09-22T16:26:50.920Z,99387.31
2017-09-22T16:29:18.391Z,99383.09
2017-09-22T16:31:45.845Z,99393.84
2017-09-22T16:34:13.307Z,99388.38
2017-09-22T16:36:40.789Z,99384.37
2017-09-22T16:39:08.247Z,99384.95
2017-09-22T16:41:35.741Z,99378.28
2017-09-22T16:44:03.224Z,99376.86
2017-09-22T16:46:30.729Z,99383.53
2017-09-22T16:48:58.228Z,99381.45
2017-09-22T16:51:25.707Z,99382.06
2017-09-22T16:53:53.173Z,99374.22
2017-09-22T16:56:20.994Z,99386.52
2017-09-22T16:58:48.469Z,99384.13
2017-09-22T17:01:15.939Z,99390.24
2017-09-22T17:03:43.407Z,99385.41
2017-09-22T17:06:10.869Z,99386.34
2017-09-22T17:08:38.351Z,99386.80
2017-09-22T17:11:05.806Z,99391.02
2017-09-22T17:13:33.323Z,99385.28
2017-09-22T17:16:00.789Z,99388.75
2017-09-22T17:18:28.520Z,99391.66
2017-09-22T17:20:55.989Z,99392.07
2017-09-22T17:23:23.455Z,99393.68
2017-09-22T17:25:50.930Z,99397.54
2017-09-22T17:28:18.385Z,99406.04
2017-09-22T17:30:45.868Z,99407.82
2017-09-22T17:33:13.324Z,99413.23
2017-09-22T17:35:40.794Z,99408.54
2017-09-22T17:38:08.271Z,99406.44
2017-09-22T17:40:36.141Z,99414.56
2017-09-22T17:43:03.602Z,99408.19
2017-09-22T17:45:31.079Z,99413.34
2017-09-22T17:47:58.569Z,99413.08
2017-09-22T17:50:26.028Z,99413.89
2017-09-22T17:52:53.576Z,99416.71
2017-09-22T17:55:21.075Z,99423.45
2017-09-22T17:57:48.930Z,99422.07
2017-09-22T18:00:16.405Z,99420.97
2017-09-22T18:02:43.867Z,99420.74
2017-09-22T18:05:11.360Z,99425.80
2017-09-22T18:07:38.828Z,99431.48
2017-09-22T18:10:06.317Z,99433.47
2017-09-22T18:12:33.792Z,99434.80
2017-09-22T18:15:01.634Z,99442.22
2017-09-22T18:17:29.114Z,99446.80
2017-09-22T18:19:56.586Z,99452.36
2017-09-22T18:22:24.077Z,99457.44
2017-09-22T18:24:51.558Z,99462.75
2017-09-22T18:27:19.096Z,99464.42
2017-09-22T18:29:46.578Z,99460.20
2017-09-22T18:32:14.078Z,99462.26
2017-09-22T18:34:41.551Z,99465.60
2017-09-22T18:37:09.298Z,99464.92
2017-09-22T18:39:36.782Z,99460.59
2017-09-22T18:42:04.251Z,99464.11
2017-09-22T18:44:31.725Z,99464.11
2017-09-22T18:46:59.177Z,99465.77
2017-09-22T18:49:26.660Z,99473.23
2017-09-22T18:51:54.131Z,99477.30
2017-09-22T18:54:21.611Z,99470.91
2017-09-22T18:56:49.087Z,99470.90
2017-09-22T18:59:16.890Z,99470.08
2017-09-22T19:01:44.377Z,99474.30
2017-09-22T19:04:11.864Z,99478.13
2017-09-22T19:06:39.364Z,99480.38
2017-09-22T19:09:06.829Z,99477.98
2017-09-22T19:11:34.595Z,99475.37
2017-09-22T19:14:02.071Z,99476.72
2017-09-22T19:16:29.545Z,99484.86
2017-09-22T19:18:57.025Z,99479.78
2017-09-22T19:21:24.484Z,99477.97
2017-09-22T19:23:51.977Z,99473.89
2017-09-22T19:26:19.451Z,99482.77
2017-09-22T19:28:47.309Z,99490.31
2017-09-22T19:31:14.779Z,99492.80
2017-09-22T19:33:42.245Z,99494.78
2017-09-22T19:36:09.714Z,99492.57
2017-09-22T19:38:37.172Z,99494.50
2017-09-22T19:41:04.951Z,99493.00
2017-09-22T19:43:32.426Z,99498.23
2017-09-22T19:45:59.884Z,99496.28
2017-09-22T19:48:27.428Z,99496.03
2017-09-22T19:50:54.889Z,99494.20
2017-09-22T19:53:22.695Z,99498.13
2017-09-22T19:55:50.157Z,99501.86
2017-09-22T19:58:17.610Z,99495.16
2017-09-22T20:00:45.083Z,99498.91
2017-09-22T20:03:12.557Z,99506.20
2017-09-22T20:05:40.079Z,99504.02
2017-09-22T20:08:07.548Z,99497.39
2017-09-22T20:10:35.110Z,99508.23
2017-09-22T20:13:02.570Z,99508.08
2017-09-22T20:15:30.319Z,99505.98
2017-09-22T20:17:57.841Z,99508.31
2017-09-22T20:20:25.303Z,99506.61
2017-09-22T20:22:52.789Z,99511.25
2017-09-22T20:25:20.255Z,99512.63
2017-09-22T20:27:47.759Z,99519.02
2017-09-22T20:30:15.232Z,99524.23
2017-09-22T20:32:43.045Z,99527.10
2017-09-22T20:35:10.515Z,99527.70
2017-09-22T20:37:37.978Z,99528.53
2017-09-22T20:40:05.478Z,99527.95
2017-09-22T20:42:32.931Z,99520.34
2017-09-22T20:45:00.719Z,99522.48
2017-09-22T20:47:28.178Z,99522.02
2017-09-22T20:49:55.655Z,99525.19
2017-09-22T20:52:23.168Z,99532.54
2017-09-22T20:54:50.625Z,99523.77
2017-09-22T20:57:18.100Z,99528.73
2017-09-22T20:59:45.573Z,99528.56
2017-09-22T21:02:13.323Z,99526.30
2017-09-22T21:04:40.818Z,99531.22
2017-09-22T21:07:08.291Z,99536.50
2017-09-22T21:09:35.765Z,99540.34
2017-09-22T21:12:03.232Z,99538.10
2017-09-22T21:14:30.722Z,99538.52
2017-09-22T21:16:58.178Z,99536.95
2017-09-22T21:19:25.934Z,99536.45
2017-09-22T21:21:53.430Z,99542.30
2017-09-22T21:24:20.899Z,99544.40
2017-09-22T21:26:48.372Z,99539.14
2017-09-22T21:29:15.852Z,99541.14
2017-09-22T21:31:43.999Z,99541.56
2017-09-22T21:34:11.458Z,99548.31
2017-09-22T21:36:42.973Z,99544.11
2017-09-22T21:39:10.439Z,99547.47
2017-09-22T21:41:37.953Z,99550.62
2017-09-22T21:44:05.431Z,99547.12
2017-09-22T21:46:32.903Z,99543.95
2017-09-22T21:49:00.791Z,99545.88
2017-09-22T21:51:28.256Z,99548.73
2017-09-22T21:53:55.744Z,99545.77
2017-09-22T21:56:23.216Z,99553.95
2017-09-22T21:58:50.677Z,99554.44
2017-09-22T22:01:18.173Z,99549.97
2017-09-22T22:03:51.204Z,99549.02
2017-09-22T22:06:24.261Z,99555.20
2017-09-22T22:08:57.351Z,99550.80
2017-09-22T22:11:24.834Z,99551.89
2017-09-22T22:13:52.293Z,99553.11
2017-09-22T22:16:19.879Z,99551.89
2017-09-22T22:18:47.353Z,99555.28
2017-09-22T22:21:15.218Z,99547.23
2017-09-22T22:23:42.675Z,99548.50
2017-09-22T22:26:10.158Z,99550.70
2017-09-22T22:28:37.630Z,99551.12
2017-09-22T22:31:05.091Z,99550.63
2017-09-22T22:33:32.570Z,99555.10
2017-09-22T22:36:00.032Z,99552.09
2017-09-22T22:38:27.518Z,99554.19
2017-09-22T22:40:54.986Z,99548.53
2017-09-22T22:43:22.824Z,99549.58
2017-09-22T22:45:50.301Z,99544.69
2017-09-22T22:48:17.758Z,99548.11
2017-09-22T22:50:45.229Z,99545.66
2017-09-22T22:53:12.698Z,99546.78
2017-09-22T22:55:40.163Z,99540.63
2017-09-22T22:58:07.618Z,99541.68
2017-09-22T23:00:35.492Z,99551.28
2017-09-22T23:03:02.977Z,99546.92
2017-09-22T23:05:30.436Z,99542.59
2017-09-22T23:07:57.907Z,99542.31
2017-09-22T23:10:25.377Z,99544.58
2017-09-22T23:12:52.842Z,99546.19
2017-09-22T23:15:20.338Z,99547.80
2017-09-22T23:17:47.818Z,99544.09
2017-09-22T23:20:15.286Z,99544.58
2017-09-22T23:22:42.748Z,99545.28
2017-09-22T23:25:10.219Z,99549.23
2017-09-22T23:27:38.083Z,99543.88
2017-09-22T23:30:05.551Z,99553.03
2017-09-22T23:32:33.057Z,99556.59
2017-09-22T23:35:00.512Z,99554.77
2017-09-22T23:37:27.977Z,99552.84
2017-09-22T23:39:55.441Z,99552.23
2017-09-22T23:42:22.902Z,99556.63
2017-09-22T23:44:50.362Z,99562.18
2017-09-22T23:47:17.808Z,99566.13
2017-09-22T23:49:45.560Z,99564.80
2017-09-22T23:52:13.015Z,99566.54
2017-09-22T23:54:40.562Z,99560.66
2017-09-22T23:57:08.026Z,99571.38
2017-09-22T23:59:35.477Z,99572.41
